createdAt,value
2023-04-04T00:00:52.672Z,0.60
2023-04-04T00:03:20.155Z,0.40
2023-04-04T00:05:48.012Z,0.20
2023-04-04T00:08:15.238Z,0.30
2023-04-04T00:10:43.010Z,1.65
2023-04-04T00:13:10.466Z,0.88
2023-04-04T00:15:37.949Z,1.08
2023-04-04T00:18:05.410Z,0.40
2023-04-04T00:20:32.943Z,0.65
2023-04-04T00:23:00.683Z,0.30
2023-04-04T00:25:28.443Z,0.32
2023-04-04T00:27:56.254Z,0.40
2023-04-04T00:30:23.764Z,0.20
2023-04-04T00:32:51.828Z,0.73
2023-04-04T00:35:19.523Z,0.40
2023-04-04T00:37:46.769Z,0.30
2023-04-04T00:40:14.887Z,0.22
2023-04-04T00:42:42.468Z,0.50
2023-04-04T00:45:11.080Z,0.30
2023-04-04T00:47:39.794Z,0.60
2023-04-04T00:50:08.108Z,0.28
2023-04-04T00:52:35.820Z,0.20
2023-04-04T00:55:04.510Z,0.77
2023-04-04T00:57:34.473Z,0.30
2023-04-04T01:00:07.175Z,0.30
2023-04-04T01:02:35.793Z,0.40
2023-04-04T01:05:04.578Z,0.50
2023-04-04T01:07:32.644Z,0.40
2023-04-04T01:10:01.281Z,2.20
2023-04-04T01:12:28.868Z,0.20
2023-04-04T01:14:56.620Z,0.35
2023-04-04T01:17:24.599Z,0.50
2023-04-04T01:20:01.372Z,0.20
2023-04-04T01:22:32.052Z,0.30
2023-04-04T01:25:01.694Z,0.10
2023-04-04T01:27:30.388Z,0.50
2023-04-04T01:30:07.577Z,0.32
2023-04-04T01:32:46.030Z,0.60
2023-04-04T01:35:29.055Z,0.20
2023-04-04T01:38:19.003Z,0.20
2023-04-04T01:40:51.480Z,0.40
2023-04-04T01:43:20.504Z,0.25
2023-04-04T01:45:49.839Z,0.20
2023-04-04T01:48:17.554Z,0.40
2023-04-04T01:50:49.202Z,0.40
2023-04-04T01:53:17.105Z,0.20
2023-04-04T01:55:44.895Z,0.40
2023-04-04T01:58:12.490Z,0.60
2023-04-04T02:00:40.175Z,0.20
2023-04-04T02:03:07.682Z,0.30
2023-04-04T02:05:36.004Z,0.28
2023-04-04T02:08:03.240Z,0.40
2023-04-04T02:10:40.088Z,0.20
2023-04-04T02:13:07.507Z,0.30
2023-04-04T02:15:35.707Z,0.52
2023-04-04T02:18:03.662Z,0.38
2023-04-04T02:20:31.552Z,0.43
2023-04-04T02:22:58.907Z,0.20
2023-04-04T02:25:26.511Z,0.50
2023-04-04T02:27:53.784Z,0.30
2023-04-04T02:30:21.480Z,0.47
2023-04-04T02:32:50.394Z,0.25
2023-04-04T02:35:20.732Z,0.35
2023-04-04T02:37:48.089Z,0.40
2023-04-04T02:40:23.533Z,0.47
2023-04-04T02:42:51.204Z,0.30
2023-04-04T02:45:19.983Z,0.22
2023-04-04T02:47:59.289Z,0.57
2023-04-04T02:50:37.364Z,0.45
2023-04-04T02:53:04.734Z,0.50
2023-04-04T02:55:35.601Z,0.40
2023-04-04T02:58:03.315Z,0.43
2023-04-04T03:00:30.877Z,0.47
2023-04-04T03:02:58.553Z,0.32
2023-04-04T03:05:40.492Z,0.32
2023-04-04T03:08:08.342Z,0.50
2023-04-04T03:10:35.902Z,0.60
2023-04-04T03:13:04.262Z,0.28
2023-04-04T03:15:35.180Z,0.20
2023-04-04T03:18:03.429Z,0.38
2023-04-04T03:20:33.300Z,0.30
2023-04-04T03:23:00.706Z,0.20
2023-04-04T03:25:28.233Z,0.60
2023-04-04T03:27:55.721Z,0.43
2023-04-04T03:30:26.278Z,0.15
2023-04-04T03:32:53.749Z,0.30
2023-04-04T03:35:21.371Z,0.45
2023-04-04T03:37:48.554Z,0.40
2023-04-04T03:40:16.157Z,0.40
2023-04-04T03:42:43.545Z,0.70
2023-04-04T03:45:13.163Z,0.43
2023-04-04T03:47:42.600Z,0.50
2023-04-04T03:50:10.756Z,0.43
2023-04-04T03:52:43.786Z,0.43
2023-04-04T03:55:11.383Z,0.45
2023-04-04T03:57:38.669Z,0.43
2023-04-04T04:02:41.262Z,0.40
2023-04-04T04:05:10.609Z,0.55
2023-04-04T04:07:37.947Z,0.32
2023-04-04T04:10:06.613Z,0.60
2023-04-04T04:12:33.844Z,0.47
2023-04-04T04:15:02.037Z,0.45
2023-04-04T04:17:32.901Z,0.40
2023-04-04T04:20:01.415Z,0.43
2023-04-04T04:22:37.092Z,0.65
2023-04-04T04:25:05.678Z,0.63
2023-04-04T04:27:34.007Z,0.55
2023-04-04T04:30:01.607Z,0.65
2023-04-04T04:32:35.145Z,0.38
2023-04-04T04:35:03.305Z,0.77
2023-04-04T04:37:34.787Z,0.50
2023-04-04T04:40:03.494Z,0.32
2023-04-04T04:42:37.711Z,0.30
2023-04-04T04:45:06.950Z,0.20
2023-04-04T04:47:37.493Z,1.00
2023-04-04T04:50:08.338Z,0.43
2023-04-04T04:52:44.425Z,0.30
2023-04-04T04:55:13.876Z,0.47
2023-04-04T04:57:49.833Z,0.68
2023-04-04T05:00:24.573Z,0.20
2023-04-04T05:02:56.193Z,0.95
2023-04-04T05:05:36.355Z,0.30
2023-04-04T05:08:07.676Z,0.50
2023-04-04T05:10:39.391Z,0.85
2023-04-04T05:13:08.170Z,0.32
2023-04-04T05:15:42.121Z,1.23
2023-04-04T05:18:09.596Z,1.42
2023-04-04T05:20:38.113Z,0.57
2023-04-04T05:23:07.600Z,1.05
2023-04-04T05:25:41.714Z,0.30
2023-04-04T05:28:09.229Z,0.80
2023-04-04T05:30:39.401Z,0.40
2023-04-04T05:33:18.414Z,0.65
2023-04-04T05:35:55.807Z,0.22
2023-04-04T05:38:23.244Z,0.40
2023-04-04T05:40:54.556Z,0.50
2023-04-04T05:43:23.029Z,0.80
2023-04-04T05:46:13.616Z,0.50
2023-04-04T05:48:46.511Z,0.52
2023-04-04T05:51:14.741Z,0.40
2023-04-04T05:53:49.386Z,0.40
2023-04-04T05:56:22.607Z,0.50
2023-04-04T05:58:49.970Z,0.55
2023-04-04T06:01:18.556Z,0.60
2023-04-04T06:03:47.021Z,0.55
2023-04-04T06:06:21.309Z,0.52
2023-04-04T06:08:53.520Z,0.50
2023-04-04T06:11:24.546Z,0.77
2023-04-04T06:13:55.260Z,0.50
2023-04-04T06:16:24.507Z,0.60
2023-04-04T06:18:51.748Z,0.40
2023-04-04T06:21:19.230Z,0.88
2023-04-04T06:23:46.707Z,0.35
2023-04-04T06:26:15.002Z,0.82
2023-04-04T06:28:50.135Z,0.40
2023-04-04T06:31:25.529Z,0.45
2023-04-04T06:33:55.416Z,0.20
2023-04-04T06:36:25.052Z,0.63
2023-04-04T06:38:52.796Z,0.25
2023-04-04T06:41:22.607Z,0.40
2023-04-04T06:43:52.476Z,0.43
2023-04-04T06:46:20.056Z,0.40
2023-04-04T06:48:47.324Z,0.30
2023-04-04T06:51:15.743Z,0.43
2023-04-04T06:53:45.561Z,0.20
2023-04-04T06:56:13.178Z,0.63
2023-04-04T06:58:40.356Z,0.60
2023-04-04T07:01:08.234Z,0.57
2023-04-04T07:03:35.744Z,0.30
2023-04-04T07:06:04.619Z,0.30
2023-04-04T07:08:36.082Z,0.47
2023-04-04T07:11:05.056Z,0.63
2023-04-04T07:13:32.220Z,1.05
2023-04-04T07:15:59.715Z,0.65
2023-04-04T07:18:27.316Z,0.40
2023-04-04T07:20:54.807Z,0.70
2023-04-04T07:23:22.028Z,0.70
2023-04-04T07:25:49.563Z,0.50
2023-04-04T07:28:16.877Z,0.60
2023-04-04T07:30:44.348Z,0.30
2023-04-04T07:33:11.593Z,0.70
2023-04-04T07:35:39.433Z,0.30
2023-04-04T07:38:06.803Z,0.60
2023-04-04T07:40:34.373Z,0.45
2023-04-04T07:43:01.585Z,0.32
2023-04-04T07:45:29.174Z,0.60
2023-04-04T07:47:56.454Z,0.52
2023-04-04T07:50:23.999Z,0.47
2023-04-04T07:52:52.368Z,0.65
2023-04-04T07:55:20.357Z,6.38
2023-04-04T07:57:47.713Z,0.30
2023-04-04T08:00:15.929Z,0.50
2023-04-04T08:02:45.190Z,0.40
2023-04-04T08:05:12.758Z,0.40
2023-04-04T08:07:40.223Z,0.30
2023-04-04T08:10:08.580Z,0.35
2023-04-04T08:12:36.074Z,0.30
2023-04-04T08:15:03.811Z,0.40
2023-04-04T08:17:31.325Z,0.30
2023-04-04T08:19:58.843Z,0.40
2023-04-04T08:22:27.127Z,0.20
2023-04-04T08:24:54.917Z,0.22
2023-04-04T08:27:22.198Z,0.40
2023-04-04T08:29:49.873Z,0.60
2023-04-04T08:32:17.099Z,0.30
2023-04-04T08:34:44.686Z,0.20
2023-04-04T08:37:11.902Z,0.30
2023-04-04T08:39:39.430Z,0.20
2023-04-04T08:42:07.820Z,0.20
2023-04-04T08:44:37.081Z,0.30
2023-04-04T08:47:05.636Z,0.20
2023-04-04T08:49:37.455Z,0.22
2023-04-04T08:52:06.452Z,0.30
2023-04-04T08:54:35.189Z,0.30
2023-04-04T08:57:02.605Z,0.30
2023-04-04T08:59:30.207Z,0.30
2023-04-04T09:02:09.751Z,0.20
2023-04-04T09:04:43.024Z,1.02
2023-04-04T09:07:12.208Z,0.40
2023-04-04T09:09:40.425Z,0.80
2023-04-04T09:12:08.445Z,0.50
2023-04-04T09:14:40.247Z,0.47
2023-04-04T09:17:10.044Z,0.22
2023-04-04T09:19:38.601Z,0.40
2023-04-04T09:22:09.655Z,0.20
2023-04-04T09:24:41.690Z,0.75
2023-04-04T09:27:11.309Z,0.20
2023-04-04T09:29:39.721Z,0.73
2023-04-04T09:32:17.277Z,0.20
2023-04-04T09:34:48.050Z,0.30
2023-04-04T09:37:17.469Z,0.30
2023-04-04T09:39:45.724Z,0.20
2023-04-04T09:42:13.656Z,0.45
2023-04-04T09:44:41.364Z,0.30
2023-04-04T09:47:30.936Z,0.52
2023-04-04T09:50:00.605Z,0.50
2023-04-04T09:52:28.083Z,0.43
2023-04-04T09:55:00.031Z,0.30
2023-04-04T09:57:34.883Z,0.30
2023-04-04T10:00:07.159Z,0.40
2023-04-04T10:02:38.902Z,0.45
2023-04-04T10:05:10.381Z,0.35
2023-04-04T10:07:40.242Z,0.40
2023-04-04T10:10:11.471Z,0.40
2023-04-04T10:12:39.059Z,0.57
2023-04-04T10:15:08.478Z,0.68
2023-04-04T10:17:40.137Z,0.70
2023-04-04T10:22:38.257Z,0.22
2023-04-04T10:25:07.306Z,0.20
2023-04-04T10:27:35.096Z,0.22
2023-04-04T10:30:02.804Z,0.50
2023-04-04T10:32:43.582Z,0.25
2023-04-04T10:35:12.961Z,0.20
2023-04-04T10:37:50.121Z,0.30
2023-04-04T10:40:21.893Z,0.20
2023-04-04T10:42:50.820Z,0.30
2023-04-04T10:45:21.677Z,0.30
2023-04-04T10:47:50.821Z,0.32
2023-04-04T10:50:20.826Z,0.50
2023-04-04T10:52:48.562Z,0.22
2023-04-04T10:55:17.310Z,0.17
2023-04-04T10:57:47.786Z,0.50
2023-04-04T11:00:18.955Z,0.40
2023-04-04T11:02:46.204Z,0.28
2023-04-04T11:05:34.726Z,0.50
2023-04-04T11:10:36.233Z,0.20
2023-04-04T11:13:31.762Z,0.30
2023-04-04T11:16:07.711Z,0.90
2023-04-04T11:18:45.844Z,0.40
2023-04-04T11:21:20.228Z,0.60
2023-04-04T11:23:47.691Z,0.50
2023-04-04T11:26:33.640Z,0.43
2023-04-04T11:29:02.867Z,0.30
2023-04-04T11:31:33.710Z,0.20
2023-04-04T11:34:05.184Z,0.20
2023-04-04T11:36:35.606Z,0.20
2023-04-04T11:39:21.099Z,0.22
2023-04-04T11:41:49.363Z,0.43
2023-04-04T11:44:17.670Z,0.40
2023-04-04T11:46:51.028Z,0.30
2023-04-04T11:49:18.674Z,0.50
2023-04-04T11:51:46.819Z,0.20
2023-04-04T11:54:15.803Z,0.30
2023-04-04T11:56:45.515Z,0.28
2023-04-04T11:59:17.276Z,0.28
2023-04-04T12:04:12.921Z,0.40
2023-04-04T12:06:40.620Z,0.30
2023-04-04T12:09:08.810Z,0.30
2023-04-04T12:11:37.292Z,0.30
2023-04-04T12:14:04.504Z,0.30
2023-04-04T12:16:32.089Z,0.20
2023-04-04T12:19:02.222Z,0.20
2023-04-04T12:21:33.285Z,0.10
2023-04-04T12:24:00.578Z,0.30
2023-04-04T12:26:30.067Z,0.22
2023-04-04T12:28:58.538Z,0.22
2023-04-04T12:31:27.495Z,0.10
2023-04-04T12:33:55.049Z,0.20
2023-04-04T12:36:26.117Z,0.28
2023-04-04T12:39:06.855Z,0.30
2023-04-04T12:41:36.209Z,0.30
2023-04-04T12:44:10.199Z,0.57
2023-04-04T12:46:40.006Z,0.30
2023-04-04T12:49:10.485Z,0.30
2023-04-04T12:51:38.880Z,0.20
2023-04-04T12:54:07.424Z,0.43
2023-04-04T12:56:37.221Z,0.30
2023-04-04T12:59:08.363Z,0.30
2023-04-04T13:01:37.997Z,0.13
2023-04-04T13:04:05.362Z,0.32
2023-04-04T13:06:33.446Z,0.30
2023-04-04T13:09:01.441Z,0.22
2023-04-04T13:12:02.275Z,0.47
2023-04-04T13:14:58.162Z,0.40
2023-04-04T13:17:27.228Z,0.60
2023-04-04T13:19:54.572Z,0.40
2023-04-04T13:22:22.158Z,0.45
2023-04-04T13:24:49.353Z,0.20
2023-04-04T13:27:17.023Z,0.30
2023-04-04T13:29:44.410Z,0.30
2023-04-04T13:32:11.917Z,0.30
2023-04-04T13:34:39.171Z,0.43
2023-04-04T13:37:07.379Z,0.25
2023-04-04T13:39:34.593Z,0.45
2023-04-04T13:42:03.617Z,0.30
2023-04-04T13:44:30.985Z,0.20
2023-04-04T13:46:58.608Z,0.20
2023-04-04T13:49:25.814Z,0.25
2023-04-04T13:51:53.307Z,0.20
2023-04-04T13:54:20.527Z,0.65
2023-04-04T13:56:48.100Z,0.10
2023-04-04T13:59:15.412Z,0.25
2023-04-04T14:01:43.105Z,0.28
2023-04-04T14:04:22.842Z,0.20
2023-04-04T14:06:51.908Z,0.17
2023-04-04T14:09:19.142Z,0.30
2023-04-04T14:11:46.835Z,0.35
2023-04-04T14:14:14.153Z,0.20
2023-04-04T14:16:41.887Z,0.20
2023-04-04T14:19:09.147Z,0.30
2023-04-04T14:21:36.670Z,0.50
2023-04-04T14:24:04.090Z,0.28
2023-04-04T14:26:32.763Z,0.40
2023-04-04T14:29:01.261Z,0.35
2023-04-04T14:31:29.102Z,0.25
2023-04-04T14:33:56.327Z,0.28
2023-04-04T14:36:24.586Z,0.25
2023-04-04T14:38:51.952Z,0.22
2023-04-04T14:41:19.478Z,0.10
2023-04-04T14:43:46.689Z,0.10
2023-04-04T14:46:14.206Z,0.40
2023-04-04T14:48:41.497Z,0.50
2023-04-04T14:51:09.101Z,0.20
2023-04-04T14:53:36.774Z,0.63
2023-04-04T14:56:04.573Z,0.43
2023-04-04T14:58:31.795Z,0.20
2023-04-04T15:01:01.491Z,0.20
2023-04-04T15:03:28.834Z,0.20
2023-04-04T15:05:56.785Z,0.40
2023-04-04T15:08:24.352Z,0.70
2023-04-04T15:10:51.993Z,0.30
2023-04-04T15:13:19.258Z,0.30
2023-04-04T15:15:46.765Z,0.30
2023-04-04T15:18:14.083Z,0.25
2023-04-04T15:20:42.080Z,0.32
2023-04-04T15:23:09.566Z,0.10
2023-04-04T15:25:37.102Z,0.30
2023-04-04T15:28:04.308Z,0.38
2023-04-04T15:30:33.407Z,0.32
2023-04-04T15:33:00.692Z,0.30
2023-04-04T15:35:28.356Z,0.30
2023-04-04T15:37:55.903Z,0.20
2023-04-04T15:40:23.553Z,0.30
2023-04-04T15:42:51.394Z,0.60
2023-04-04T15:45:18.937Z,0.35
2023-04-04T15:47:46.232Z,1.90
2023-04-04T15:50:13.910Z,0.10
2023-04-04T15:52:41.817Z,0.40
2023-04-04T15:55:14.586Z,0.45
2023-04-04T15:57:44.708Z,0.30
2023-04-04T16:00:14.148Z,0.10
2023-04-04T16:02:41.404Z,1.20
2023-04-04T16:05:09.179Z,0.28
2023-04-04T16:07:36.955Z,0.30
2023-04-04T16:10:05.066Z,0.20
2023-04-04T16:12:33.532Z,0.20
2023-04-04T16:15:01.307Z,0.10
2023-04-04T16:17:28.546Z,0.22
2023-04-04T16:19:56.266Z,0.28
2023-04-04T16:22:23.488Z,0.25
2023-04-04T16:24:52.119Z,0.25
2023-04-04T16:27:19.365Z,0.20
2023-04-04T16:29:47.244Z,0.20
2023-04-04T16:32:14.529Z,0.20
2023-04-04T16:34:42.108Z,0.30
2023-04-04T16:37:11.683Z,0.20
2023-04-04T16:39:39.267Z,0.20
2023-04-04T16:42:06.580Z,0.25
2023-04-04T16:44:34.754Z,0.50
2023-04-04T16:47:02.059Z,0.40
2023-04-04T16:49:31.287Z,0.43
2023-04-04T16:51:58.629Z,0.30
2023-04-04T16:54:26.169Z,0.35
2023-04-04T16:56:53.344Z,0.30
2023-04-04T16:59:21.032Z,0.30
2023-04-04T17:01:49.216Z,0.20
2023-04-04T17:04:16.968Z,0.40
2023-04-04T17:06:44.315Z,0.40
2023-04-04T17:09:11.929Z,0.55
2023-04-04T17:11:44.656Z,0.40
2023-04-04T17:14:12.238Z,0.25
2023-04-04T17:16:39.646Z,0.30
2023-04-04T17:19:07.335Z,0.25
2023-04-04T17:21:34.772Z,0.32
2023-04-04T17:24:02.317Z,0.30
2023-04-04T17:26:29.670Z,0.43
2023-04-04T17:28:57.181Z,0.47
2023-04-04T17:31:24.532Z,0.47
2023-04-04T17:33:52.237Z,0.35
2023-04-04T17:36:20.397Z,0.52
2023-04-04T17:38:47.974Z,0.22
2023-04-04T17:41:15.723Z,0.93
2023-04-04T17:43:43.245Z,0.63
2023-04-04T17:46:10.543Z,0.50
2023-04-04T17:48:38.144Z,0.47
2023-04-04T17:51:07.064Z,0.55
2023-04-04T17:53:35.861Z,0.43
2023-04-04T17:56:03.339Z,0.50
2023-04-04T17:58:30.808Z,0.60
2023-04-04T18:00:58.503Z,0.40
2023-04-04T18:03:26.571Z,0.90
2023-04-04T18:05:54.010Z,0.70
2023-04-04T18:08:22.643Z,0.70
2023-04-04T18:10:51.610Z,0.60
2023-04-04T18:13:19.159Z,0.60
2023-04-04T18:15:46.454Z,0.75
2023-04-04T18:18:13.993Z,0.90
2023-04-04T18:20:41.289Z,0.95
2023-04-04T18:23:09.406Z,1.05
2023-04-04T18:25:36.787Z,1.20
2023-04-04T18:28:04.339Z,1.45
2023-04-04T18:30:31.945Z,1.70
2023-04-04T18:32:59.551Z,0.82
2023-04-04T18:35:27.237Z,1.00
2023-04-04T18:37:54.853Z,1.65
2023-04-04T18:40:22.090Z,1.50
2023-04-04T18:42:51.735Z,1.58
2023-04-04T18:45:22.819Z,1.45
2023-04-04T18:47:54.978Z,1.45
2023-04-04T18:50:22.778Z,1.25
2023-04-04T18:52:50.540Z,1.50
2023-04-04T18:55:18.507Z,1.48
2023-04-04T18:57:48.569Z,2.30
2023-04-04T19:00:16.327Z,2.15
2023-04-04T19:02:43.920Z,1.20
2023-04-04T19:05:15.514Z,1.58
2023-04-04T19:07:44.040Z,1.20
2023-04-04T19:10:11.442Z,1.80
2023-04-04T19:12:39.071Z,1.15
2023-04-04T19:15:07.081Z,1.33
2023-04-04T19:17:34.706Z,2.28
2023-04-04T19:20:02.282Z,1.80
2023-04-04T19:22:29.841Z,2.88
2023-04-04T19:24:57.155Z,1.52
2023-04-04T19:27:24.648Z,1.90
2023-04-04T19:29:53.746Z,1.60
2023-04-04T19:32:24.667Z,1.80
2023-04-04T19:34:52.399Z,1.80
2023-04-04T19:37:19.971Z,1.75
2023-04-04T19:39:47.996Z,1.70
2023-04-04T19:42:17.994Z,4.13
2023-04-04T19:44:45.322Z,2.25
2023-04-04T19:47:19.510Z,1.95
2023-04-04T19:49:53.860Z,2.15
2023-04-04T19:52:23.087Z,1.73
2023-04-04T19:54:50.446Z,1.67
2023-04-04T19:57:20.077Z,1.40
2023-04-04T19:59:53.355Z,1.40
2023-04-04T20:02:38.846Z,2.03
2023-04-04T20:05:47.074Z,2.75
2023-04-04T20:08:14.833Z,1.40
2023-04-04T20:10:42.618Z,1.10
2023-04-04T20:13:10.584Z,1.15
2023-04-04T20:15:43.733Z,1.60
2023-04-04T20:18:11.553Z,1.35
2023-04-04T20:20:57.320Z,1.40
2023-04-04T20:23:26.364Z,1.30
2023-04-04T20:25:54.706Z,1.90
2023-04-04T20:28:27.570Z,1.27
2023-04-04T20:30:55.188Z,1.73
2023-04-04T20:33:36.805Z,1.40
2023-04-04T20:36:22.212Z,1.70
2023-04-04T20:38:49.928Z,2.45
2023-04-04T20:41:24.441Z,1.60
2023-04-04T20:43:59.899Z,1.95
2023-04-04T20:46:28.735Z,2.60
2023-04-04T20:48:56.859Z,2.10
2023-04-04T20:51:24.552Z,1.67
2023-04-04T20:53:55.865Z,2.17
2023-04-04T20:56:38.175Z,1.60
2023-04-04T20:59:25.566Z,2.53
2023-04-04T21:01:53.133Z,2.47
2023-04-04T21:04:28.711Z,2.15
2023-04-04T21:06:56.614Z,2.08
2023-04-04T21:09:25.862Z,2.83
2023-04-04T21:11:53.173Z,2.38
2023-04-04T21:14:25.201Z,2.15
2023-04-04T21:16:52.487Z,2.38
2023-04-04T21:19:22.167Z,2.70
2023-04-04T21:21:50.691Z,2.30
2023-04-04T21:24:18.148Z,2.42
2023-04-04T21:26:45.489Z,2.63
2023-04-04T21:29:22.008Z,2.25
2023-04-04T21:31:52.584Z,2.35
2023-04-04T21:34:22.770Z,2.40
2023-04-04T21:36:55.317Z,2.88
2023-04-04T21:39:25.083Z,2.65
2023-04-04T21:41:56.667Z,2.88
2023-04-04T21:44:25.604Z,2.65
2023-04-04T21:46:55.315Z,2.83
2023-04-04T21:49:24.316Z,2.80
2023-04-04T21:51:52.107Z,3.28
2023-04-04T21:54:19.604Z,2.78
2023-04-04T21:56:47.282Z,2.90
2023-04-04T21:59:14.989Z,2.95
2023-04-04T22:01:42.399Z,2.88
2023-04-04T22:04:10.034Z,3.08
2023-04-04T22:06:37.340Z,3.03
2023-04-04T22:09:05.386Z,2.70
2023-04-04T22:11:34.827Z,2.90
2023-04-04T22:14:07.468Z,2.78
2023-04-04T22:16:42.971Z,3.22
2023-04-04T22:19:11.524Z,2.97
2023-04-04T22:21:39.421Z,3.03
2023-04-04T22:24:07.388Z,3.58
2023-04-04T22:26:34.742Z,3.13
2023-04-04T22:29:04.588Z,2.72
2023-04-04T22:31:34.797Z,3.15
2023-04-04T22:34:03.516Z,2.75
2023-04-04T22:36:31.336Z,3.42
2023-04-04T22:38:58.970Z,3.03
2023-04-04T22:41:28.290Z,3.28
2023-04-04T22:43:57.736Z,2.80
2023-04-04T22:46:26.543Z,3.15
2023-04-04T22:49:05.292Z,2.88
2023-04-04T22:51:34.999Z,3.25
2023-04-04T22:54:03.257Z,3.05
2023-04-04T22:56:31.692Z,3.33
2023-04-04T22:58:59.197Z,2.88
2023-04-04T23:01:26.598Z,3.15
2023-04-04T23:03:54.183Z,3.33
2023-04-04T23:06:22.069Z,3.63
2023-04-04T23:08:49.555Z,3.05
2023-04-04T23:11:16.759Z,3.50
2023-04-04T23:13:44.322Z,2.95
2023-04-04T23:16:11.536Z,2.95
2023-04-04T23:18:39.391Z,3.33
2023-04-04T23:21:07.365Z,3.05
2023-04-04T23:23:34.879Z,3.45
2023-04-04T23:26:02.086Z,4.13
2023-04-04T23:28:29.850Z,3.10
2023-04-04T23:30:57.130Z,3.13
2023-04-04T23:33:24.703Z,2.85
2023-04-04T23:35:52.162Z,2.30
2023-04-04T23:38:19.717Z,2.50
2023-04-04T23:40:47.191Z,2.22
2023-04-04T23:43:14.708Z,2.70
2023-04-04T23:45:41.976Z,2.38
2023-04-04T23:48:09.518Z,2.30
2023-04-04T23:50:38.086Z,3.42
2023-04-04T23:53:05.733Z,2.55
2023-04-04T23:55:33.012Z,3.00
2023-04-04T23:58:02.551Z,3.42
